sensor_id;sensor_type;location;lat;lon;timestamp;P1;durP1;ratioP1;P2;durP2;ratioP2
38037;SDS011;23843;51.320;12.340;2023-08-31T00:00:28;0.73;;;0.40;;
38037;SDS011;23843;51.320;12.340;2023-08-31T00:02:53;0.47;;;0.47;;
38037;SDS011;23843;51.320;12.340;2023-08-31T00:05:19;0.60;;;0.60;;
38037;SDS011;23843;51.320;12.340;2023-08-31T00:07:45;0.40;;;0.20;;
38037;SDS011;23843;51.320;12.340;2023-08-31T00:10:10;0.20;;;0.20;;
38037;SDS011;23843;51.320;12.340;2023-08-31T00:12:37;0.20;;;0.20;;
38037;SDS011;23843;51.320;12.340;2023-08-31T00:15:03;0.30;;;0.20;;
38037;SDS011;23843;51.320;12.340;2023-08-31T00:17:29;0.20;;;0.20;;
38037;SDS011;23843;51.320;12.340;2023-08-31T00:19:55;0.30;;;0.30;;
38037;SDS011;23843;51.320;12.340;2023-08-31T00:22:20;1.37;;;0.20;;
38037;SDS011;23843;51.320;12.340;2023-08-31T00:24:46;0.30;;;0.20;;
38037;SDS011;23843;51.320;12.340;2023-08-31T00:27:11;0.60;;;0.60;;
38037;SDS011;23843;51.320;12.340;2023-08-31T00:29:38;0.30;;;0.30;;
38037;SDS011;23843;51.320;12.340;2023-08-31T00:32:04;0.33;;;0.30;;
38037;SDS011;23843;51.320;12.340;2023-08-31T00:34:29;0.30;;;0.30;;
38037;SDS011;23843;51.320;12.340;2023-08-31T00:36:55;0.30;;;0.30;;
38037;SDS011;23843;51.320;12.340;2023-08-31T00:39:23;0.30;;;0.30;;
38037;SDS011;23843;51.320;12.340;2023-08-31T00:41:48;0.43;;;0.43;;
38037;SDS011;23843;51.320;12.340;2023-08-31T00:44:14;0.30;;;0.30;;
38037;SDS011;23843;51.320;12.340;2023-08-31T00:46:41;0.37;;;0.30;;
38037;SDS011;23843;51.320;12.340;2023-08-31T00:49:06;0.20;;;0.20;;
38037;SDS011;23843;51.320;12.340;2023-08-31T00:51:32;0.30;;;0.30;;
38037;SDS011;23843;51.320;12.340;2023-08-31T00:53:58;0.40;;;0.40;;
38037;SDS011;23843;51.320;12.340;2023-08-31T00:56:23;0.10;;;0.10;;
38037;SDS011;23843;51.320;12.340;2023-08-31T00:58:49;1.17;;;0.33;;
38037;SDS011;23843;51.320;12.340;2023-08-31T01:01:17;0.50;;;0.40;;
38037;SDS011;23843;51.320;12.340;2023-08-31T01:03:53;0.20;;;0.20;;
38037;SDS011;23843;51.320;12.340;2023-08-31T01:06:26;0.30;;;0.30;;
38037;SDS011;23843;51.320;12.340;2023-08-31T01:09:02;0.30;;;0.30;;
38037;SDS011;23843;51.320;12.340;2023-08-31T01:11:34;0.57;;;0.57;;
38037;SDS011;23843;51.320;12.340;2023-08-31T01:14:09;0.40;;;0.40;;
38037;SDS011;23843;51.320;12.340;2023-08-31T01:16:37;0.80;;;0.80;;
38037;SDS011;23843;51.320;12.340;2023-08-31T01:19:10;0.50;;;0.37;;
38037;SDS011;23843;51.320;12.340;2023-08-31T01:21:48;0.40;;;0.40;;
38037;SDS011;23843;51.320;12.340;2023-08-31T01:24:18;0.30;;;0.30;;
38037;SDS011;23843;51.320;12.340;2023-08-31T01:26:44;0.40;;;0.40;;
38037;SDS011;23843;51.320;12.340;2023-08-31T01:29:10;0.50;;;0.50;;
38037;SDS011;23843;51.320;12.340;2023-08-31T01:31:41;0.40;;;0.40;;
38037;SDS011;23843;51.320;12.340;2023-08-31T01:34:06;0.40;;;0.30;;
38037;SDS011;23843;51.320;12.340;2023-08-31T01:36:32;0.20;;;0.20;;
38037;SDS011;23843;51.320;12.340;2023-08-31T01:39:09;0.30;;;0.30;;
38037;SDS011;23843;51.320;12.340;2023-08-31T01:41:42;0.20;;;0.20;;
38037;SDS011;23843;51.320;12.340;2023-08-31T01:44:12;0.30;;;0.30;;
38037;SDS011;23843;51.320;12.340;2023-08-31T01:46:41;0.20;;;0.20;;
38037;SDS011;23843;51.320;12.340;2023-08-31T01:49:06;0.20;;;0.20;;
38037;SDS011;23843;51.320;12.340;2023-08-31T01:51:32;0.07;;;0.07;;
38037;SDS011;23843;51.320;12.340;2023-08-31T01:53:57;0.10;;;0.10;;
38037;SDS011;23843;51.320;12.340;2023-08-31T01:56:23;0.10;;;0.10;;
38037;SDS011;23843;51.320;12.340;2023-08-31T01:58:49;0.17;;;0.17;;
38037;SDS011;23843;51.320;12.340;2023-08-31T02:01:15;0.10;;;0.10;;
38037;SDS011;23843;51.320;12.340;2023-08-31T02:03:40;0.20;;;0.20;;
38037;SDS011;23843;51.320;12.340;2023-08-31T02:06:06;0.20;;;0.20;;
38037;SDS011;23843;51.320;12.340;2023-08-31T02:08:31;0.20;;;0.20;;
38037;SDS011;23843;51.320;12.340;2023-08-31T02:10:57;0.10;;;0.10;;
38037;SDS011;23843;51.320;12.340;2023-08-31T02:13:23;0.27;;;0.20;;
38037;SDS011;23843;51.320;12.340;2023-08-31T02:15:52;0.13;;;0.13;;
38037;SDS011;23843;51.320;12.340;2023-08-31T02:18:18;0.23;;;0.20;;
38037;SDS011;23843;51.320;12.340;2023-08-31T02:20:43;0.20;;;0.20;;
38037;SDS011;23843;51.320;12.340;2023-08-31T02:23:09;0.20;;;0.20;;
38037;SDS011;23843;51.320;12.340;2023-08-31T02:25:34;0.20;;;0.20;;
38037;SDS011;23843;51.320;12.340;2023-08-31T02:28:00;0.10;;;0.10;;
38037;SDS011;23843;51.320;12.340;2023-08-31T02:30:25;0.10;;;0.10;;
38037;SDS011;23843;51.320;12.340;2023-08-31T02:32:52;0.13;;;0.13;;
38037;SDS011;23843;51.320;12.340;2023-08-31T02:35:17;0.10;;;0.10;;
38037;SDS011;23843;51.320;12.340;2023-08-31T02:37:43;0.50;;;0.50;;
38037;SDS011;23843;51.320;12.340;2023-08-31T02:40:09;0.40;;;0.40;;
38037;SDS011;23843;51.320;12.340;2023-08-31T02:42:35;0.50;;;0.50;;
38037;SDS011;23843;51.320;12.340;2023-08-31T02:45:00;0.30;;;0.30;;
38037;SDS011;23843;51.320;12.340;2023-08-31T02:47:26;0.30;;;0.30;;
38037;SDS011;23843;51.320;12.340;2023-08-31T02:49:53;0.93;;;0.30;;
38037;SDS011;23843;51.320;12.340;2023-08-31T02:52:18;0.20;;;0.20;;
38037;SDS011;23843;51.320;12.340;2023-08-31T02:54:44;0.20;;;0.20;;
38037;SDS011;23843;51.320;12.340;2023-08-31T02:57:09;0.30;;;0.30;;
38037;SDS011;23843;51.320;12.340;2023-08-31T02:59:34;0.20;;;0.20;;
38037;SDS011;23843;51.320;12.340;2023-08-31T03:02:00;0.33;;;0.33;;
38037;SDS011;23843;51.320;12.340;2023-08-31T03:04:25;0.20;;;0.20;;
38037;SDS011;23843;51.320;12.340;2023-08-31T03:06:52;0.73;;;0.37;;
38037;SDS011;23843;51.320;12.340;2023-08-31T03:09:18;0.40;;;0.30;;
38037;SDS011;23843;51.320;12.340;2023-08-31T03:11:43;0.40;;;0.30;;
38037;SDS011;23843;51.320;12.340;2023-08-31T03:14:09;0.30;;;0.30;;
38037;SDS011;23843;51.320;12.340;2023-08-31T03:16:34;0.47;;;0.30;;
38037;SDS011;23843;51.320;12.340;2023-08-31T03:18:59;0.30;;;0.30;;
38037;SDS011;23843;51.320;12.340;2023-08-31T03:21:25;0.37;;;0.37;;
38037;SDS011;23843;51.320;12.340;2023-08-31T03:23:52;0.37;;;0.30;;
38037;SDS011;23843;51.320;12.340;2023-08-31T03:26:17;0.30;;;0.30;;
38037;SDS011;23843;51.320;12.340;2023-08-31T03:28:43;0.30;;;0.30;;
38037;SDS011;23843;51.320;12.340;2023-08-31T03:31:08;0.50;;;0.40;;
38037;SDS011;23843;51.320;12.340;2023-08-31T03:33:33;0.40;;;0.40;;
38037;SDS011;23843;51.320;12.340;2023-08-31T03:36:00;0.27;;;0.27;;
38037;SDS011;23843;51.320;12.340;2023-08-31T03:38:25;0.30;;;0.30;;
38037;SDS011;23843;51.320;12.340;2023-08-31T03:40:55;0.30;;;0.30;;
38037;SDS011;23843;51.320;12.340;2023-08-31T03:43:21;0.30;;;0.20;;
38037;SDS011;23843;51.320;12.340;2023-08-31T03:45:47;0.40;;;0.30;;
38037;SDS011;23843;51.320;12.340;2023-08-31T03:48:12;0.37;;;0.37;;
38037;SDS011;23843;51.320;12.340;2023-08-31T03:50:38;0.20;;;0.20;;
38037;SDS011;23843;51.320;12.340;2023-08-31T03:53:03;0.30;;;0.30;;
38037;SDS011;23843;51.320;12.340;2023-08-31T03:55:29;0.30;;;0.30;;
38037;SDS011;23843;51.320;12.340;2023-08-31T03:57:55;0.30;;;0.30;;
38037;SDS011;23843;51.320;12.340;2023-08-31T04:00:21;0.30;;;0.30;;
38037;SDS011;23843;51.320;12.340;2023-08-31T04:02:46;0.50;;;0.50;;
38037;SDS011;23843;51.320;12.340;2023-08-31T04:05:12;0.40;;;0.40;;
38037;SDS011;23843;51.320;12.340;2023-08-31T04:07:37;0.40;;;0.40;;
38037;SDS011;23843;51.320;12.340;2023-08-31T04:10:03;0.40;;;0.40;;
38037;SDS011;23843;51.320;12.340;2023-08-31T04:12:49;0.50;;;0.50;;
38037;SDS011;23843;51.320;12.340;2023-08-31T04:15:16;0.50;;;0.50;;
38037;SDS011;23843;51.320;12.340;2023-08-31T04:17:41;1.03;;;0.60;;
38037;SDS011;23843;51.320;12.340;2023-08-31T04:20:07;0.30;;;0.30;;
38037;SDS011;23843;51.320;12.340;2023-08-31T04:22:32;0.50;;;0.50;;
38037;SDS011;23843;51.320;12.340;2023-08-31T04:24:58;0.50;;;0.50;;
38037;SDS011;23843;51.320;12.340;2023-08-31T04:27:23;0.60;;;0.60;;
38037;SDS011;23843;51.320;12.340;2023-08-31T04:29:49;0.40;;;0.40;;
38037;SDS011;23843;51.320;12.340;2023-08-31T04:32:16;0.70;;;0.70;;
38037;SDS011;23843;51.320;12.340;2023-08-31T04:34:43;0.40;;;0.40;;
38037;SDS011;23843;51.320;12.340;2023-08-31T04:37:09;0.40;;;0.37;;
38037;SDS011;23843;51.320;12.340;2023-08-31T04:39:34;0.67;;;0.50;;
38037;SDS011;23843;51.320;12.340;2023-08-31T04:42:00;1.23;;;0.83;;
38037;SDS011;23843;51.320;12.340;2023-08-31T04:44:25;0.60;;;0.60;;
38037;SDS011;23843;51.320;12.340;2023-08-31T04:46:51;0.50;;;0.50;;
38037;SDS011;23843;51.320;12.340;2023-08-31T04:49:17;0.70;;;0.50;;
38037;SDS011;23843;51.320;12.340;2023-08-31T04:51:43;0.60;;;0.60;;
38037;SDS011;23843;51.320;12.340;2023-08-31T04:54:09;1.00;;;0.90;;
38037;SDS011;23843;51.320;12.340;2023-08-31T04:56:35;1.00;;;0.90;;
38037;SDS011;23843;51.320;12.340;2023-08-31T04:59:01;0.70;;;0.70;;
38037;SDS011;23843;51.320;12.340;2023-08-31T05:01:26;1.10;;;1.00;;
38037;SDS011;23843;51.320;12.340;2023-08-31T05:03:52;1.57;;;1.47;;
38037;SDS011;23843;51.320;12.340;2023-08-31T05:06:19;1.10;;;1.00;;
38037;SDS011;23843;51.320;12.340;2023-08-31T05:08:44;1.00;;;0.90;;
38037;SDS011;23843;51.320;12.340;2023-08-31T05:11:10;1.63;;;1.10;;
38037;SDS011;23843;51.320;12.340;2023-08-31T05:13:35;1.27;;;0.80;;
38037;SDS011;23843;51.320;12.340;2023-08-31T05:16:01;0.70;;;0.70;;
38037;SDS011;23843;51.320;12.340;2023-08-31T05:18:26;1.70;;;1.30;;
38037;SDS011;23843;51.320;12.340;2023-08-31T05:20:52;1.20;;;1.10;;
38037;SDS011;23843;51.320;12.340;2023-08-31T05:23:18;1.03;;;1.00;;
38037;SDS011;23843;51.320;12.340;2023-08-31T05:25:44;1.37;;;1.20;;
38037;SDS011;23843;51.320;12.340;2023-08-31T05:28:10;1.10;;;1.00;;
38037;SDS011;23843;51.320;12.340;2023-08-31T05:30:35;1.30;;;1.17;;
38037;SDS011;23843;51.320;12.340;2023-08-31T05:33:01;1.30;;;1.00;;
38037;SDS011;23843;51.320;12.340;2023-08-31T05:35:26;1.50;;;1.40;;
38037;SDS011;23843;51.320;12.340;2023-08-31T05:37:52;1.10;;;0.80;;
38037;SDS011;23843;51.320;12.340;2023-08-31T05:40:19;1.40;;;1.30;;
38037;SDS011;23843;51.320;12.340;2023-08-31T05:42:44;1.30;;;1.20;;
38037;SDS011;23843;51.320;12.340;2023-08-31T05:45:10;2.40;;;1.70;;
38037;SDS011;23843;51.320;12.340;2023-08-31T05:47:35;1.47;;;1.37;;
38037;SDS011;23843;51.320;12.340;2023-08-31T05:50:01;1.33;;;1.23;;
38037;SDS011;23843;51.320;12.340;2023-08-31T05:52:26;1.10;;;1.00;;
38037;SDS011;23843;51.320;12.340;2023-08-31T05:54:52;1.33;;;1.23;;
38037;SDS011;23843;51.320;12.340;2023-08-31T05:57:19;1.85;;;1.10;;
38037;SDS011;23843;51.320;12.340;2023-08-31T05:59:45;1.20;;;1.10;;
38037;SDS011;23843;51.320;12.340;2023-08-31T06:02:10;1.23;;;0.85;;
38037;SDS011;23843;51.320;12.340;2023-08-31T06:04:36;1.20;;;1.10;;
38037;SDS011;23843;51.320;12.340;2023-08-31T06:07:01;1.27;;;1.17;;
38037;SDS011;23843;51.320;12.340;2023-08-31T06:09:27;0.82;;;0.82;;
38037;SDS011;23843;51.320;12.340;2023-08-31T06:11:52;1.10;;;1.00;;
38037;SDS011;23843;51.320;12.340;2023-08-31T06:14:19;1.77;;;1.30;;
38037;SDS011;23843;51.320;12.340;2023-08-31T06:16:45;1.35;;;1.20;;
38037;SDS011;23843;51.320;12.340;2023-08-31T06:19:10;1.25;;;1.13;;
38037;SDS011;23843;51.320;12.340;2023-08-31T06:21:35;1.10;;;1.00;;
38037;SDS011;23843;51.320;12.340;2023-08-31T06:24:01;1.10;;;1.00;;
38037;SDS011;23843;51.320;12.340;2023-08-31T06:26:26;1.40;;;1.30;;
38037;SDS011;23843;51.320;12.340;2023-08-31T06:28:52;1.10;;;1.00;;
38037;SDS011;23843;51.320;12.340;2023-08-31T06:31:19;2.42;;;1.40;;
38037;SDS011;23843;51.320;12.340;2023-08-31T06:33:44;1.10;;;1.00;;
38037;SDS011;23843;51.320;12.340;2023-08-31T06:36:10;1.10;;;1.00;;
38037;SDS011;23843;51.320;12.340;2023-08-31T06:38:35;1.30;;;1.20;;
38037;SDS011;23843;51.320;12.340;2023-08-31T06:41:01;1.15;;;1.00;;
38037;SDS011;23843;51.320;12.340;2023-08-31T06:43:27;1.30;;;1.20;;
38037;SDS011;23843;51.320;12.340;2023-08-31T06:45:52;1.35;;;1.20;;
38037;SDS011;23843;51.320;12.340;2023-08-31T06:48:19;0.93;;;0.90;;
38037;SDS011;23843;51.320;12.340;2023-08-31T06:50:45;1.40;;;1.30;;
38037;SDS011;23843;51.320;12.340;2023-08-31T06:53:12;1.60;;;1.50;;
38037;SDS011;23843;51.320;12.340;2023-08-31T06:55:37;1.92;;;1.70;;
38037;SDS011;23843;51.320;12.340;2023-08-31T06:58:03;1.10;;;1.00;;
38037;SDS011;23843;51.320;12.340;2023-08-31T07:00:30;0.90;;;0.90;;
38037;SDS011;23843;51.320;12.340;2023-08-31T07:02:55;1.30;;;1.10;;
38037;SDS011;23843;51.320;12.340;2023-08-31T07:05:24;0.90;;;0.90;;
38037;SDS011;23843;51.320;12.340;2023-08-31T07:07:50;1.58;;;1.48;;
38037;SDS011;23843;51.320;12.340;2023-08-31T07:10:16;1.55;;;1.33;;
38037;SDS011;23843;51.320;12.340;2023-08-31T07:12:42;1.10;;;1.00;;
38037;SDS011;23843;51.320;12.340;2023-08-31T07:15:08;1.10;;;1.00;;
38037;SDS011;23843;51.320;12.340;2023-08-31T07:17:33;0.98;;;0.90;;
38037;SDS011;23843;51.320;12.340;2023-08-31T07:19:59;1.00;;;0.93;;
38037;SDS011;23843;51.320;12.340;2023-08-31T07:22:26;1.27;;;1.10;;
38037;SDS011;23843;51.320;12.340;2023-08-31T07:24:51;1.35;;;1.27;;
38037;SDS011;23843;51.320;12.340;2023-08-31T07:27:17;0.85;;;0.80;;
38037;SDS011;23843;51.320;12.340;2023-08-31T07:29:42;1.05;;;0.95;;
38037;SDS011;23843;51.320;12.340;2023-08-31T07:32:07;1.23;;;0.93;;
38037;SDS011;23843;51.320;12.340;2023-08-31T07:34:33;1.05;;;0.90;;
38037;SDS011;23843;51.320;12.340;2023-08-31T07:36:59;1.25;;;1.15;;
38037;SDS011;23843;51.320;12.340;2023-08-31T07:39:26;1.15;;;0.93;;
38037;SDS011;23843;51.320;12.340;2023-08-31T07:41:52;2.33;;;1.00;;
38037;SDS011;23843;51.320;12.340;2023-08-31T07:44:19;3.20;;;1.50;;
38037;SDS011;23843;51.320;12.340;2023-08-31T07:46:44;1.10;;;1.00;;
38037;SDS011;23843;51.320;12.340;2023-08-31T07:49:10;1.92;;;1.30;;
38037;SDS011;23843;51.320;12.340;2023-08-31T07:51:35;1.50;;;1.30;;
38037;SDS011;23843;51.320;12.340;2023-08-31T07:54:00;1.25;;;0.95;;
38037;SDS011;23843;51.320;12.340;2023-08-31T07:56:27;1.10;;;1.00;;
38037;SDS011;23843;51.320;12.340;2023-08-31T07:58:53;1.13;;;0.90;;
38037;SDS011;23843;51.320;12.340;2023-08-31T08:01:18;1.13;;;0.93;;
38037;SDS011;23843;51.320;12.340;2023-08-31T08:03:44;1.35;;;1.13;;
38037;SDS011;23843;51.320;12.340;2023-08-31T08:06:09;1.30;;;1.20;;
38037;SDS011;23843;51.320;12.340;2023-08-31T08:08:34;1.40;;;1.00;;
38037;SDS011;23843;51.320;12.340;2023-08-31T08:11:00;2.42;;;1.10;;
38037;SDS011;23843;51.320;12.340;2023-08-31T08:13:27;1.33;;;1.15;;
38037;SDS011;23843;51.320;12.340;2023-08-31T08:15:52;0.90;;;0.90;;
38037;SDS011;23843;51.320;12.340;2023-08-31T08:18:18;1.52;;;1.00;;
38037;SDS011;23843;51.320;12.340;2023-08-31T08:20:46;1.17;;;0.98;;
38037;SDS011;23843;51.320;12.340;2023-08-31T08:23:12;1.45;;;1.02;;
38037;SDS011;23843;51.320;12.340;2023-08-31T08:25:37;1.05;;;0.90;;
38037;SDS011;23843;51.320;12.340;2023-08-31T08:28:03;1.42;;;1.02;;
38037;SDS011;23843;51.320;12.340;2023-08-31T08:30:30;1.25;;;0.80;;
38037;SDS011;23843;51.320;12.340;2023-08-31T08:32:56;1.33;;;0.95;;
38037;SDS011;23843;51.320;12.340;2023-08-31T08:35:21;1.02;;;1.00;;
38037;SDS011;23843;51.320;12.340;2023-08-31T08:37:47;1.23;;;1.13;;
38037;SDS011;23843;51.320;12.340;2023-08-31T08:40:12;1.00;;;0.90;;
38037;SDS011;23843;51.320;12.340;2023-08-31T08:42:38;1.15;;;1.02;;
38037;SDS011;23843;51.320;12.340;2023-08-31T08:45:06;1.27;;;0.98;;
38037;SDS011;23843;51.320;12.340;2023-08-31T08:47:35;1.20;;;0.80;;
38037;SDS011;23843;51.320;12.340;2023-08-31T08:50:01;1.02;;;0.88;;
38037;SDS011;23843;51.320;12.340;2023-08-31T08:52:27;0.70;;;0.60;;
38037;SDS011;23843;51.320;12.340;2023-08-31T08:54:53;0.63;;;0.63;;
38037;SDS011;23843;51.320;12.340;2023-08-31T08:57:19;1.10;;;1.00;;
38037;SDS011;23843;51.320;12.340;2023-08-31T08:59:44;0.90;;;0.90;;
38037;SDS011;23843;51.320;12.340;2023-08-31T09:02:10;1.73;;;1.00;;
38037;SDS011;23843;51.320;12.340;2023-08-31T09:07:46;2.30;;;0.90;;
38037;SDS011;23843;51.320;12.340;2023-08-31T09:10:43;1.25;;;0.70;;
38037;SDS011;23843;51.320;12.340;2023-08-31T09:13:16;0.98;;;0.88;;
38037;SDS011;23843;51.320;12.340;2023-08-31T09:15:43;0.82;;;0.82;;
38037;SDS011;23843;51.320;12.340;2023-08-31T09:18:16;1.33;;;1.20;;
38037;SDS011;23843;51.320;12.340;2023-08-31T09:20:47;1.10;;;0.90;;
38037;SDS011;23843;51.320;12.340;2023-08-31T09:23:14;1.60;;;1.50;;
38037;SDS011;23843;51.320;12.340;2023-08-31T09:25:41;1.80;;;1.15;;
38037;SDS011;23843;51.320;12.340;2023-08-31T09:28:07;1.67;;;1.20;;
38037;SDS011;23843;51.320;12.340;2023-08-31T09:30:34;1.63;;;1.40;;
38037;SDS011;23843;51.320;12.340;2023-08-31T09:33:00;0.75;;;0.70;;
38037;SDS011;23843;51.320;12.340;2023-08-31T09:35:26;1.15;;;0.73;;
38037;SDS011;23843;51.320;12.340;2023-08-31T09:37:54;0.98;;;0.60;;
38037;SDS011;23843;51.320;12.340;2023-08-31T09:40:22;0.70;;;0.70;;
38037;SDS011;23843;51.320;12.340;2023-08-31T09:42:49;1.05;;;0.70;;
38037;SDS011;23843;51.320;12.340;2023-08-31T09:45:16;0.70;;;0.70;;
38037;SDS011;23843;51.320;12.340;2023-08-31T09:47:42;1.08;;;0.50;;
38037;SDS011;23843;51.320;12.340;2023-08-31T09:50:08;0.85;;;0.70;;
38037;SDS011;23843;51.320;12.340;2023-08-31T09:52:35;0.57;;;0.55;;
38037;SDS011;23843;51.320;12.340;2023-08-31T09:55:02;0.40;;;0.40;;
38037;SDS011;23843;51.320;12.340;2023-08-31T09:57:31;0.60;;;0.60;;
38037;SDS011;23843;51.320;12.340;2023-08-31T09:59:58;1.08;;;0.70;;
38037;SDS011;23843;51.320;12.340;2023-08-31T10:02:24;0.80;;;0.80;;
38037;SDS011;23843;51.320;12.340;2023-08-31T10:04:52;0.60;;;0.60;;
38037;SDS011;23843;51.320;12.340;2023-08-31T10:07:18;1.45;;;0.70;;
38037;SDS011;23843;51.320;12.340;2023-08-31T10:09:44;0.70;;;0.70;;
38037;SDS011;23843;51.320;12.340;2023-08-31T10:12:10;1.20;;;0.90;;
38037;SDS011;23843;51.320;12.340;2023-08-31T10:14:37;1.60;;;0.90;;
38037;SDS011;23843;51.320;12.340;2023-08-31T10:17:03;2.25;;;1.20;;
38037;SDS011;23843;51.320;12.340;2023-08-31T10:19:29;1.02;;;0.80;;
38037;SDS011;23843;51.320;12.340;2023-08-31T10:21:55;2.00;;;1.30;;
38037;SDS011;23843;51.320;12.340;2023-08-31T10:24:35;1.52;;;1.42;;
38037;SDS011;23843;51.320;12.340;2023-08-31T10:27:25;1.05;;;0.95;;
38037;SDS011;23843;51.320;12.340;2023-08-31T10:29:52;1.08;;;0.90;;
38037;SDS011;23843;51.320;12.340;2023-08-31T10:32:17;1.55;;;0.82;;
38037;SDS011;23843;51.320;12.340;2023-08-31T10:34:43;0.68;;;0.60;;
38037;SDS011;23843;51.320;12.340;2023-08-31T10:37:21;0.88;;;0.80;;
38037;SDS011;23843;51.320;12.340;2023-08-31T10:39:47;1.58;;;0.85;;
38037;SDS011;23843;51.320;12.340;2023-08-31T10:42:12;1.10;;;0.80;;
38037;SDS011;23843;51.320;12.340;2023-08-31T10:44:39;2.15;;;1.02;;
38037;SDS011;23843;51.320;12.340;2023-08-31T10:47:08;1.00;;;0.90;;
38037;SDS011;23843;51.320;12.340;2023-08-31T10:49:34;1.17;;;0.98;;
38037;SDS011;23843;51.320;12.340;2023-08-31T10:52:14;1.30;;;0.80;;
38037;SDS011;23843;51.320;12.340;2023-08-31T10:54:40;1.10;;;1.00;;
38037;SDS011;23843;51.320;12.340;2023-08-31T10:57:06;1.38;;;0.82;;
38037;SDS011;23843;51.320;12.340;2023-08-31T10:59:41;1.30;;;0.75;;
38037;SDS011;23843;51.320;12.340;2023-08-31T11:02:26;1.20;;;1.00;;
38037;SDS011;23843;51.320;12.340;2023-08-31T11:04:55;0.98;;;0.85;;
38037;SDS011;23843;51.320;12.340;2023-08-31T11:07:26;1.17;;;0.68;;
38037;SDS011;23843;51.320;12.340;2023-08-31T11:09:52;0.75;;;0.60;;
38037;SDS011;23843;51.320;12.340;2023-08-31T11:12:32;1.50;;;1.40;;
38037;SDS011;23843;51.320;12.340;2023-08-31T11:14:57;0.95;;;0.70;;
38037;SDS011;23843;51.320;12.340;2023-08-31T11:17:24;1.75;;;1.00;;
38037;SDS011;23843;51.320;12.340;2023-08-31T11:19:50;1.45;;;0.93;;
38037;SDS011;23843;51.320;12.340;2023-08-31T11:22:16;3.13;;;0.88;;
38037;SDS011;23843;51.320;12.340;2023-08-31T11:24:41;1.05;;;0.88;;
38037;SDS011;23843;51.320;12.340;2023-08-31T11:27:07;1.63;;;0.82;;
38037;SDS011;23843;51.320;12.340;2023-08-31T11:29:36;0.70;;;0.70;;
38037;SDS011;23843;51.320;12.340;2023-08-31T11:32:02;1.30;;;0.80;;
38037;SDS011;23843;51.320;12.340;2023-08-31T11:34:29;0.80;;;0.80;;
38037;SDS011;23843;51.320;12.340;2023-08-31T11:36:54;1.02;;;0.90;;
38037;SDS011;23843;51.320;12.340;2023-08-31T11:39:20;1.25;;;1.20;;
38037;SDS011;23843;51.320;12.340;2023-08-31T11:41:45;1.20;;;0.90;;
38037;SDS011;23843;51.320;12.340;2023-08-31T11:44:12;0.82;;;0.80;;
38037;SDS011;23843;51.320;12.340;2023-08-31T11:46:39;1.05;;;0.90;;
38037;SDS011;23843;51.320;12.340;2023-08-31T11:49:08;0.73;;;0.68;;
38037;SDS011;23843;51.320;12.340;2023-08-31T11:51:35;1.23;;;0.85;;
38037;SDS011;23843;51.320;12.340;2023-08-31T11:54:04;0.82;;;0.70;;
38037;SDS011;23843;51.320;12.340;2023-08-31T11:56:38;3.78;;;0.95;;
38037;SDS011;23843;51.320;12.340;2023-08-31T11:59:06;1.35;;;0.90;;
38037;SDS011;23843;51.320;12.340;2023-08-31T12:01:33;0.98;;;0.88;;
38037;SDS011;23843;51.320;12.340;2023-08-31T12:04:08;1.30;;;0.90;;
38037;SDS011;23843;51.320;12.340;2023-08-31T12:06:36;0.70;;;0.70;;
38037;SDS011;23843;51.320;12.340;2023-08-31T12:09:02;1.33;;;0.85;;
38037;SDS011;23843;51.320;12.340;2023-08-31T12:11:29;1.10;;;0.70;;
38037;SDS011;23843;51.320;12.340;2023-08-31T12:13:54;1.17;;;0.80;;
38037;SDS011;23843;51.320;12.340;2023-08-31T12:16:20;0.80;;;0.70;;
38037;SDS011;23843;51.320;12.340;2023-08-31T12:18:45;1.10;;;1.00;;
38037;SDS011;23843;51.320;12.340;2023-08-31T12:21:11;0.77;;;0.70;;
38037;SDS011;23843;51.320;12.340;2023-08-31T12:23:38;0.57;;;0.57;;
38037;SDS011;23843;51.320;12.340;2023-08-31T12:26:05;0.95;;;0.73;;
38037;SDS011;23843;51.320;12.340;2023-08-31T12:28:30;0.50;;;0.50;;
38037;SDS011;23843;51.320;12.340;2023-08-31T12:30:56;0.82;;;0.70;;
38037;SDS011;23843;51.320;12.340;2023-08-31T12:33:21;0.95;;;0.68;;
38037;SDS011;23843;51.320;12.340;2023-08-31T12:35:47;0.88;;;0.70;;
38037;SDS011;23843;51.320;12.340;2023-08-31T12:38:13;0.52;;;0.52;;
38037;SDS011;23843;51.320;12.340;2023-08-31T12:40:40;1.92;;;0.80;;
38037;SDS011;23843;51.320;12.340;2023-08-31T12:43:05;0.60;;;0.60;;
38037;SDS011;23843;51.320;12.340;2023-08-31T12:45:31;1.08;;;0.80;;
38037;SDS011;23843;51.320;12.340;2023-08-31T12:47:57;1.02;;;0.60;;
38037;SDS011;23843;51.320;12.340;2023-08-31T12:50:22;2.15;;;0.70;;
38037;SDS011;23843;51.320;12.340;2023-08-31T12:52:48;1.65;;;1.25;;
38037;SDS011;23843;51.320;12.340;2023-08-31T12:55:14;1.30;;;0.88;;
38037;SDS011;23843;51.320;12.340;2023-08-31T12:57:42;0.95;;;0.80;;
38037;SDS011;23843;51.320;12.340;2023-08-31T13:00:08;0.55;;;0.55;;
38037;SDS011;23843;51.320;12.340;2023-08-31T13:02:34;2.13;;;1.30;;
38037;SDS011;23843;51.320;12.340;2023-08-31T13:04:59;1.02;;;0.93;;
38037;SDS011;23843;51.320;12.340;2023-08-31T13:07:25;1.35;;;1.25;;
38037;SDS011;23843;51.320;12.340;2023-08-31T13:09:51;0.73;;;0.70;;
38037;SDS011;23843;51.320;12.340;2023-08-31T13:12:16;1.00;;;1.00;;
38037;SDS011;23843;51.320;12.340;2023-08-31T13:14:44;1.20;;;0.77;;
38037;SDS011;23843;51.320;12.340;2023-08-31T13:17:10;0.60;;;0.50;;
38037;SDS011;23843;51.320;12.340;2023-08-31T13:19:35;0.60;;;0.60;;
38037;SDS011;23843;51.320;12.340;2023-08-31T13:22:01;1.58;;;0.60;;
38037;SDS011;23843;51.320;12.340;2023-08-31T13:24:26;0.80;;;0.63;;
38037;SDS011;23843;51.320;12.340;2023-08-31T13:26:52;1.17;;;0.70;;
38037;SDS011;23843;51.320;12.340;2023-08-31T13:29:17;0.88;;;0.88;;
38037;SDS011;23843;51.320;12.340;2023-08-31T13:31:44;0.93;;;0.70;;
38037;SDS011;23843;51.320;12.340;2023-08-31T13:34:10;0.95;;;0.65;;
38037;SDS011;23843;51.320;12.340;2023-08-31T13:36:36;0.60;;;0.60;;
38037;SDS011;23843;51.320;12.340;2023-08-31T13:39:01;1.80;;;0.82;;
38037;SDS011;23843;51.320;12.340;2023-08-31T13:41:27;1.10;;;0.80;;
38037;SDS011;23843;51.320;12.340;2023-08-31T13:43:52;0.70;;;0.70;;
38037;SDS011;23843;51.320;12.340;2023-08-31T13:46:18;0.50;;;0.50;;
38037;SDS011;23843;51.320;12.340;2023-08-31T13:48:44;1.98;;;1.13;;
38037;SDS011;23843;51.320;12.340;2023-08-31T13:51:10;0.88;;;0.85;;
38037;SDS011;23843;51.320;12.340;2023-08-31T13:53:35;1.02;;;0.60;;
38037;SDS011;23843;51.320;12.340;2023-08-31T13:56:01;0.80;;;0.65;;
38037;SDS011;23843;51.320;12.340;2023-08-31T13:58:26;0.95;;;0.80;;
38037;SDS011;23843;51.320;12.340;2023-08-31T14:00:52;0.40;;;0.40;;
38037;SDS011;23843;51.320;12.340;2023-08-31T14:03:17;0.73;;;0.50;;
38037;SDS011;23843;51.320;12.340;2023-08-31T14:05:46;1.17;;;0.60;;
38037;SDS011;23843;51.320;12.340;2023-08-31T14:08:12;0.57;;;0.55;;
38037;SDS011;23843;51.320;12.340;2023-08-31T14:10:39;0.88;;;0.80;;
38037;SDS011;23843;51.320;12.340;2023-08-31T14:13:04;1.42;;;0.60;;
38037;SDS011;23843;51.320;12.340;2023-08-31T14:15:30;0.63;;;0.63;;
38037;SDS011;23843;51.320;12.340;2023-08-31T14:17:55;0.60;;;0.60;;
38037;SDS011;23843;51.320;12.340;2023-08-31T14:20:21;1.02;;;1.00;;
38037;SDS011;23843;51.320;12.340;2023-08-31T14:22:48;0.40;;;0.40;;
38037;SDS011;23843;51.320;12.340;2023-08-31T14:25:13;0.65;;;0.50;;
38037;SDS011;23843;51.320;12.340;2023-08-31T14:27:40;0.60;;;0.60;;
38037;SDS011;23843;51.320;12.340;2023-08-31T14:30:06;0.80;;;0.70;;
38037;SDS011;23843;51.320;12.340;2023-08-31T14:32:32;0.77;;;0.68;;